Aviation Digital Data Service (ADDS)

Output produced by METARs form (0427 UTC 26 May 2018)
found at http://www.aviationweather.gov/adds/metars/
 
OAIX 260358Z AUTO 00000KT 9999 CLR 22/06 A3001 RMK AO2 SLP073 T02240061 $
TAF OAIX 252300Z 2523/2705 33009KT 9999 SCT150 QNH2993INS 
     BECMG 2605/2606 35012G18KT 9999 SCT120 QNH2995INS 
     TEMPO 2608/2614 36025G35KT 8000 -SHRA VCTS BKN080CB 
     BECMG 2619/2620 36009KT 9999 SCT100 QNH2998INS TX28/2611Z TN11/2601Z
       
OAHR 260355Z 30003KT CAVOK 24/12 Q1016 RMK A3002 BLU
TAF AMD OAHR 260130Z 2602/2624 VRB02KT CAVOK 
     BECMG 2604/2606 35012KT 
     BECMG 2614/2616 06007KT
       
OAJL 260355Z VRB06KT 9999 FEW180 33/03 A2976 RMK AO2A SLP026 T03300028
TAF OAJL 260000Z 2600/2706 27009KT 9999 SCT120 QNH2972INS 
     BECMG 2605/2606 09009KT 9999 FEW150 QNH2973INS 
     BECMG 2608/2609 23012KT 9999 VCSH SCT140 QNH2974INS 
     TEMPO 2610/2614 22015G25KT 8000 -SHRA VCTS SCT140CB 
     BECMG 2620/2621 30009KT 9999 NSW FEW140 QNH2975INS TX35/2610Z TN26/2600Z
       
OAKB 260350Z 35006KT CAVOK 22/04 Q1018 NOSIG RMK A3007 BLU BLU
TAF OAKB 252305Z 2600/2624 VRB02KT CAVOK 
     BECMG 2605/2607 FEW100 SCT150 
     BECMG 2608/2610 34015KT SCT080 
     TEMPO 2610/2614 01015G25KT 7000 -SHRA VCTS FEW050CB SCT080 
     BECMG 2618/2620 VRB02KT CAVOK
       
OAKN 260355Z VRB03KT 9000 DU CLR 25/M06 A2991 RMK AO2A SLP077 Q1013 PA3314 DA5301
TAF OAKN 252300Z 2523/2705 VRB06KT 9999 SKC QNH2984INS 
     BECMG 2606/2607 27010G15KT 6000 BLDU SKC QNH2977INS 
     TEMPO 2608/2614 28015G20KT 4000 BLDU 
     BECMG 2615/2616 27009KT 8000 DU SKC WS020/20035KT QNH2981INS TX35/2611Z TN19/2601Z
       
OAMS 260350Z 33004KT 9999 FEW150 SCT200 27/06 Q1010 BLU+BLU+
TAF OAMS 252305Z 2600/2624 26010KT 9999 NSW SCT200 
     BECMG 2606/2608 08012KT 9999 NSW FEW060 SCT200